sensor_id;sensor_type;location;lat;lon;timestamp;P1;durP1;ratioP1;P2;durP2;ratioP2
5813;SDS011;2933;52.302;8.134;2024-01-16T00:04:37;1.57;;;1.40;;
5813;SDS011;2933;52.302;8.134;2024-01-16T00:09:40;0.90;;;0.90;;
5813;SDS011;2933;52.302;8.134;2024-01-16T00:14:42;1.87;;;0.83;;
5813;SDS011;2933;52.302;8.134;2024-01-16T00:19:45;5.50;;;1.40;;
5813;SDS011;2933;52.302;8.134;2024-01-16T00:24:46;1.00;;;0.90;;
5813;SDS011;2933;52.302;8.134;2024-01-16T00:29:48;1.13;;;1.00;;
5813;SDS011;2933;52.302;8.134;2024-01-16T00:34:51;4.43;;;1.23;;
5813;SDS011;2933;52.302;8.134;2024-01-16T00:39:52;7.83;;;1.40;;
5813;SDS011;2933;52.302;8.134;2024-01-16T00:44:54;2.90;;;1.20;;
5813;SDS011;2933;52.302;8.134;2024-01-16T00:49:58;2.20;;;1.00;;
5813;SDS011;2933;52.302;8.134;2024-01-16T00:55:00;17.83;;;1.90;;
5813;SDS011;2933;52.302;8.134;2024-01-16T01:00:03;3.63;;;1.63;;
5813;SDS011;2933;52.302;8.134;2024-01-16T01:05:08;2.07;;;1.93;;
5813;SDS011;2933;52.302;8.134;2024-01-16T01:10:09;4.23;;;2.23;;
5813;SDS011;2933;52.302;8.134;2024-01-16T01:15:11;8.37;;;3.47;;
5813;SDS011;2933;52.302;8.134;2024-01-16T01:20:17;15.93;;;3.57;;
5813;SDS011;2933;52.302;8.134;2024-01-16T01:25:20;6.27;;;2.63;;
5813;SDS011;2933;52.302;8.134;2024-01-16T01:30:21;2.80;;;2.47;;
5813;SDS011;2933;52.302;8.134;2024-01-16T01:35:24;3.47;;;2.07;;
5813;SDS011;2933;52.302;8.134;2024-01-16T01:40:27;10.67;;;1.90;;
5813;SDS011;2933;52.302;8.134;2024-01-16T01:45:29;6.23;;;2.83;;
5813;SDS011;2933;52.302;8.134;2024-01-16T01:50:32;2.73;;;2.53;;
5813;SDS011;2933;52.302;8.134;2024-01-16T01:55:33;8.60;;;2.53;;
5813;SDS011;2933;52.302;8.134;2024-01-16T02:00:36;3.23;;;2.50;;
5813;SDS011;2933;52.302;8.134;2024-01-16T02:05:39;3.30;;;2.23;;
5813;SDS011;2933;52.302;8.134;2024-01-16T02:10:40;2.07;;;1.80;;
5813;SDS011;2933;52.302;8.134;2024-01-16T02:15:47;6.20;;;3.20;;
5813;SDS011;2933;52.302;8.134;2024-01-16T02:20:50;2.63;;;2.17;;
5813;SDS011;2933;52.302;8.134;2024-01-16T02:25:54;10.83;;;2.90;;
5813;SDS011;2933;52.302;8.134;2024-01-16T02:30:55;7.80;;;2.27;;
5813;SDS011;2933;52.302;8.134;2024-01-16T02:35:57;4.43;;;1.13;;
5813;SDS011;2933;52.302;8.134;2024-01-16T02:41:00;1.70;;;1.50;;
5813;SDS011;2933;52.302;8.134;2024-01-16T02:46:02;19.70;;;2.60;;
5813;SDS011;2933;52.302;8.134;2024-01-16T02:51:04;7.03;;;1.57;;
5813;SDS011;2933;52.302;8.134;2024-01-16T02:56:07;7.43;;;1.83;;
5813;SDS011;2933;52.302;8.134;2024-01-16T03:01:09;4.70;;;1.73;;
5813;SDS011;2933;52.302;8.134;2024-01-16T03:06:20;1.90;;;1.70;;
5813;SDS011;2933;52.302;8.134;2024-01-16T03:11:24;5.53;;;1.50;;
5813;SDS011;2933;52.302;8.134;2024-01-16T03:16:25;1.20;;;1.10;;
5813;SDS011;2933;52.302;8.134;2024-01-16T03:21:27;3.77;;;2.00;;
5813;SDS011;2933;52.302;8.134;2024-01-16T03:26:30;2.43;;;1.43;;
5813;SDS011;2933;52.302;8.134;2024-01-16T03:31:32;2.33;;;1.50;;
5813;SDS011;2933;52.302;8.134;2024-01-16T03:36:34;1.47;;;1.27;;
5813;SDS011;2933;52.302;8.134;2024-01-16T03:41:37;2.43;;;1.27;;
5813;SDS011;2933;52.302;8.134;2024-01-16T03:46:39;2.20;;;1.53;;
5813;SDS011;2933;52.302;8.134;2024-01-16T03:51:42;3.73;;;1.67;;
5813;SDS011;2933;52.302;8.134;2024-01-16T03:56:47;2.40;;;1.67;;
5813;SDS011;2933;52.302;8.134;2024-01-16T04:01:49;1.70;;;1.60;;
5813;SDS011;2933;52.302;8.134;2024-01-16T04:06:50;4.60;;;1.40;;
5813;SDS011;2933;52.302;8.134;2024-01-16T04:11:53;4.87;;;1.67;;
5813;SDS011;2933;52.302;8.134;2024-01-16T04:16:55;2.50;;;1.43;;
5813;SDS011;2933;52.302;8.134;2024-01-16T04:21:57;2.50;;;2.00;;
5813;SDS011;2933;52.302;8.134;2024-01-16T04:26:59;11.93;;;2.10;;
5813;SDS011;2933;52.302;8.134;2024-01-16T04:32:01;2.03;;;1.80;;
5813;SDS011;2933;52.302;8.134;2024-01-16T04:37:03;4.70;;;2.83;;
5813;SDS011;2933;52.302;8.134;2024-01-16T04:42:06;3.10;;;2.67;;
5813;SDS011;2933;52.302;8.134;2024-01-16T04:47:08;2.30;;;2.10;;
5813;SDS011;2933;52.302;8.134;2024-01-16T04:52:09;5.17;;;2.47;;
5813;SDS011;2933;52.302;8.134;2024-01-16T04:57:12;11.83;;;3.27;;
5813;SDS011;2933;52.302;8.134;2024-01-16T05:02:14;10.13;;;3.00;;
5813;SDS011;2933;52.302;8.134;2024-01-16T05:07:17;7.80;;;2.27;;
5813;SDS011;2933;52.302;8.134;2024-01-16T05:12:21;6.87;;;2.97;;
5813;SDS011;2933;52.302;8.134;2024-01-16T05:17:23;6.23;;;2.60;;
5813;SDS011;2933;52.302;8.134;2024-01-16T05:22:25;9.83;;;2.27;;
5813;SDS011;2933;52.302;8.134;2024-01-16T05:27:28;6.60;;;3.20;;
5813;SDS011;2933;52.302;8.134;2024-01-16T05:32:30;2.90;;;2.23;;
5813;SDS011;2933;52.302;8.134;2024-01-16T05:37:31;3.70;;;3.00;;
5813;SDS011;2933;52.302;8.134;2024-01-16T05:42:34;4.20;;;3.70;;
5813;SDS011;2933;52.302;8.134;2024-01-16T05:47:36;4.83;;;3.27;;
5813;SDS011;2933;52.302;8.134;2024-01-16T05:52:38;4.93;;;2.60;;
5813;SDS011;2933;52.302;8.134;2024-01-16T05:57:42;3.37;;;2.63;;
5813;SDS011;2933;52.302;8.134;2024-01-16T06:02:44;5.33;;;3.00;;
5813;SDS011;2933;52.302;8.134;2024-01-16T06:07:45;5.60;;;3.17;;
5813;SDS011;2933;52.302;8.134;2024-01-16T06:12:49;4.93;;;2.70;;
5813;SDS011;2933;52.302;8.134;2024-01-16T06:17:50;7.50;;;3.83;;
5813;SDS011;2933;52.302;8.134;2024-01-16T06:22:52;4.73;;;3.63;;
5813;SDS011;2933;52.302;8.134;2024-01-16T06:27:55;6.23;;;3.80;;
5813;SDS011;2933;52.302;8.134;2024-01-16T06:32:56;5.67;;;3.23;;
5813;SDS011;2933;52.302;8.134;2024-01-16T06:37:58;6.90;;;4.00;;
5813;SDS011;2933;52.302;8.134;2024-01-16T06:43:01;8.00;;;3.47;;
5813;SDS011;2933;52.302;8.134;2024-01-16T06:48:03;11.17;;;4.03;;
5813;SDS011;2933;52.302;8.134;2024-01-16T06:53:05;13.93;;;4.50;;
5813;SDS011;2933;52.302;8.134;2024-01-16T06:58:08;9.70;;;4.07;;
5813;SDS011;2933;52.302;8.134;2024-01-16T07:03:10;5.00;;;3.77;;
5813;SDS011;2933;52.302;8.134;2024-01-16T07:08:12;7.37;;;4.67;;
5813;SDS011;2933;52.302;8.134;2024-01-16T07:13:15;7.53;;;4.70;;
5813;SDS011;2933;52.302;8.134;2024-01-16T07:18:16;7.78;;;4.28;;
5813;SDS011;2933;52.302;8.134;2024-01-16T07:23:18;6.77;;;4.50;;
5813;SDS011;2933;52.302;8.134;2024-01-16T07:28:21;14.53;;;4.93;;
5813;SDS011;2933;52.302;8.134;2024-01-16T07:33:23;10.70;;;4.97;;
5813;SDS011;2933;52.302;8.134;2024-01-16T07:38:24;13.73;;;4.13;;
5813;SDS011;2933;52.302;8.134;2024-01-16T07:43:27;6.37;;;3.97;;
5813;SDS011;2933;52.302;8.134;2024-01-16T07:48:29;8.50;;;5.43;;
5813;SDS011;2933;52.302;8.134;2024-01-16T07:53:31;5.70;;;4.33;;
5813;SDS011;2933;52.302;8.134;2024-01-16T07:58:34;12.60;;;3.97;;
5813;SDS011;2933;52.302;8.134;2024-01-16T08:03:35;5.40;;;3.67;;
5813;SDS011;2933;52.302;8.134;2024-01-16T08:08:37;6.60;;;5.17;;
5813;SDS011;2933;52.302;8.134;2024-01-16T08:13:40;7.90;;;3.90;;
5813;SDS011;2933;52.302;8.134;2024-01-16T08:18:41;5.20;;;3.20;;
5813;SDS011;2933;52.302;8.134;2024-01-16T08:23:43;6.30;;;4.37;;
5813;SDS011;2933;52.302;8.134;2024-01-16T08:28:46;3.23;;;3.03;;
5813;SDS011;2933;52.302;8.134;2024-01-16T08:33:47;6.13;;;3.70;;
5813;SDS011;2933;52.302;8.134;2024-01-16T08:38:49;7.73;;;4.80;;
5813;SDS011;2933;52.302;8.134;2024-01-16T08:43:52;5.53;;;3.83;;
5813;SDS011;2933;52.302;8.134;2024-01-16T08:48:54;8.47;;;4.07;;
5813;SDS011;2933;52.302;8.134;2024-01-16T08:53:55;4.70;;;3.43;;
5813;SDS011;2933;52.302;8.134;2024-01-16T08:58:58;6.43;;;3.73;;
5813;SDS011;2933;52.302;8.134;2024-01-16T09:04:00;4.17;;;3.10;;
5813;SDS011;2933;52.302;8.134;2024-01-16T09:09:02;5.23;;;3.57;;
5813;SDS011;2933;52.302;8.134;2024-01-16T09:14:06;9.40;;;3.57;;
5813;SDS011;2933;52.302;8.134;2024-01-16T09:19:07;5.57;;;3.33;;
5813;SDS011;2933;52.302;8.134;2024-01-16T09:24:09;4.60;;;2.87;;
5813;SDS011;2933;52.302;8.134;2024-01-16T09:29:14;2.80;;;2.60;;
5813;SDS011;2933;52.302;8.134;2024-01-16T09:34:16;11.90;;;3.53;;
5813;SDS011;2933;52.302;8.134;2024-01-16T09:39:18;6.73;;;3.40;;
5813;SDS011;2933;52.302;8.134;2024-01-16T09:44:21;8.90;;;4.13;;
5813;SDS011;2933;52.302;8.134;2024-01-16T09:49:23;3.77;;;3.43;;
5813;SDS011;2933;52.302;8.134;2024-01-16T09:54:25;8.37;;;4.10;;
5813;SDS011;2933;52.302;8.134;2024-01-16T09:59:29;3.73;;;2.80;;
5813;SDS011;2933;52.302;8.134;2024-01-16T10:04:32;4.30;;;3.33;;
5813;SDS011;2933;52.302;8.134;2024-01-16T10:09:35;5.00;;;3.50;;
5813;SDS011;2933;52.302;8.134;2024-01-16T10:14:38;4.10;;;3.70;;
5813;SDS011;2933;52.302;8.134;2024-01-16T10:19:46;7.10;;;3.77;;
5813;SDS011;2933;52.302;8.134;2024-01-16T10:24:49;6.73;;;3.63;;
5813;SDS011;2933;52.302;8.134;2024-01-16T10:29:55;4.90;;;3.13;;
5813;SDS011;2933;52.302;8.134;2024-01-16T10:35:01;6.97;;;3.33;;
5813;SDS011;2933;52.302;8.134;2024-01-16T10:40:05;3.30;;;3.00;;
5813;SDS011;2933;52.302;8.134;2024-01-16T10:45:11;7.77;;;3.17;;
5813;SDS011;2933;52.302;8.134;2024-01-16T10:50:18;11.60;;;4.50;;
5813;SDS011;2933;52.302;8.134;2024-01-16T10:55:20;5.57;;;3.97;;
5813;SDS011;2933;52.302;8.134;2024-01-16T11:00:24;9.53;;;3.87;;
5813;SDS011;2933;52.302;8.134;2024-01-16T11:05:26;10.10;;;3.43;;
5813;SDS011;2933;52.302;8.134;2024-01-16T11:10:32;5.63;;;2.87;;
5813;SDS011;2933;52.302;8.134;2024-01-16T11:15:35;8.23;;;3.97;;
5813;SDS011;2933;52.302;8.134;2024-01-16T11:20:39;4.43;;;4.03;;
5813;SDS011;2933;52.302;8.134;2024-01-16T11:25:43;8.93;;;3.60;;
5813;SDS011;2933;52.302;8.134;2024-01-16T11:30:46;6.50;;;3.80;;
5813;SDS011;2933;52.302;8.134;2024-01-16T11:35:48;7.10;;;4.53;;
5813;SDS011;2933;52.302;8.134;2024-01-16T11:40:49;6.67;;;5.47;;
5813;SDS011;2933;52.302;8.134;2024-01-16T11:45:52;10.47;;;5.97;;
5813;SDS011;2933;52.302;8.134;2024-01-16T11:50:54;12.33;;;4.97;;
5813;SDS011;2933;52.302;8.134;2024-01-16T11:55:57;11.80;;;7.43;;
5813;SDS011;2933;52.302;8.134;2024-01-16T12:01:14;19.43;;;6.70;;
5813;SDS011;2933;52.302;8.134;2024-01-16T12:06:17;7.97;;;5.90;;
5813;SDS011;2933;52.302;8.134;2024-01-16T12:11:18;10.87;;;6.73;;
5813;SDS011;2933;52.302;8.134;2024-01-16T12:16:22;14.83;;;6.80;;
5813;SDS011;2933;52.302;8.134;2024-01-16T12:21:23;9.83;;;5.87;;
5813;SDS011;2933;52.302;8.134;2024-01-16T12:26:25;13.73;;;5.57;;
5813;SDS011;2933;52.302;8.134;2024-01-16T12:31:28;9.37;;;4.90;;
5813;SDS011;2933;52.302;8.134;2024-01-16T12:36:30;6.40;;;5.30;;
5813;SDS011;2933;52.302;8.134;2024-01-16T12:41:32;5.70;;;4.87;;
5813;SDS011;2933;52.302;8.134;2024-01-16T12:46:39;12.97;;;5.53;;
5813;SDS011;2933;52.302;8.134;2024-01-16T12:51:41;10.67;;;4.33;;
5813;SDS011;2933;52.302;8.134;2024-01-16T12:56:42;6.73;;;4.50;;
5813;SDS011;2933;52.302;8.134;2024-01-16T13:01:45;5.27;;;4.60;;
5813;SDS011;2933;52.302;8.134;2024-01-16T13:06:47;9.93;;;4.70;;
5813;SDS011;2933;52.302;8.134;2024-01-16T13:11:49;8.43;;;4.33;;
5813;SDS011;2933;52.302;8.134;2024-01-16T13:16:53;10.87;;;4.90;;
5813;SDS011;2933;52.302;8.134;2024-01-16T13:21:56;10.00;;;4.33;;
5813;SDS011;2933;52.302;8.134;2024-01-16T13:26:57;6.37;;;3.70;;
5813;SDS011;2933;52.302;8.134;2024-01-16T13:32:01;5.67;;;4.03;;
5813;SDS011;2933;52.302;8.134;2024-01-16T13:37:02;5.30;;;3.10;;
5813;SDS011;2933;52.302;8.134;2024-01-16T13:42:05;3.27;;;2.93;;
5813;SDS011;2933;52.302;8.134;2024-01-16T13:47:08;5.47;;;2.70;;
5813;SDS011;2933;52.302;8.134;2024-01-16T13:52:10;4.90;;;3.63;;
5813;SDS011;2933;52.302;8.134;2024-01-16T13:57:11;3.47;;;3.20;;
5813;SDS011;2933;52.302;8.134;2024-01-16T14:02:15;3.80;;;2.47;;
5813;SDS011;2933;52.302;8.134;2024-01-16T14:07:16;5.07;;;2.70;;
5813;SDS011;2933;52.302;8.134;2024-01-16T14:12:18;10.00;;;2.80;;
5813;SDS011;2933;52.302;8.134;2024-01-16T14:17:21;4.43;;;2.80;;
5813;SDS011;2933;52.302;8.134;2024-01-16T14:22:23;5.37;;;2.90;;
5813;SDS011;2933;52.302;8.134;2024-01-16T14:27:24;3.77;;;1.93;;
5813;SDS011;2933;52.302;8.134;2024-01-16T14:32:27;4.00;;;2.97;;
5813;SDS011;2933;52.302;8.134;2024-01-16T14:37:29;2.50;;;2.33;;
5813;SDS011;2933;52.302;8.134;2024-01-16T14:42:31;2.83;;;2.20;;
5813;SDS011;2933;52.302;8.134;2024-01-16T14:47:35;6.53;;;2.63;;
5813;SDS011;2933;52.302;8.134;2024-01-16T14:52:37;2.43;;;2.33;;
5813;SDS011;2933;52.302;8.134;2024-01-16T14:57:40;4.37;;;2.20;;
5813;SDS011;2933;52.302;8.134;2024-01-16T15:02:45;9.93;;;2.43;;
5813;SDS011;2933;52.302;8.134;2024-01-16T15:07:48;4.97;;;2.93;;
5813;SDS011;2933;52.302;8.134;2024-01-16T15:12:52;5.50;;;2.80;;
5813;SDS011;2933;52.302;8.134;2024-01-16T15:17:54;6.17;;;2.97;;
5813;SDS011;2933;52.302;8.134;2024-01-16T15:22:56;2.87;;;2.50;;
5813;SDS011;2933;52.302;8.134;2024-01-16T15:27:58;10.03;;;3.00;;
5813;SDS011;2933;52.302;8.134;2024-01-16T15:33:01;4.07;;;2.50;;
5813;SDS011;2933;52.302;8.134;2024-01-16T15:38:04;7.40;;;2.93;;
5813;SDS011;2933;52.302;8.134;2024-01-16T15:43:05;4.27;;;2.80;;
5813;SDS011;2933;52.302;8.134;2024-01-16T15:48:08;3.40;;;2.30;;
5813;SDS011;2933;52.302;8.134;2024-01-16T15:53:10;2.23;;;2.13;;
5813;SDS011;2933;52.302;8.134;2024-01-16T15:58:12;3.00;;;2.73;;
5813;SDS011;2933;52.302;8.134;2024-01-16T16:03:15;4.53;;;2.30;;
5813;SDS011;2933;52.302;8.134;2024-01-16T16:08:16;3.27;;;2.47;;
5813;SDS011;2933;52.302;8.134;2024-01-16T16:13:18;4.50;;;2.30;;
5813;SDS011;2933;52.302;8.134;2024-01-16T16:18:21;5.17;;;2.30;;
5813;SDS011;2933;52.302;8.134;2024-01-16T16:23:23;5.37;;;2.60;;
5813;SDS011;2933;52.302;8.134;2024-01-16T16:28:24;7.93;;;2.33;;
5813;SDS011;2933;52.302;8.134;2024-01-16T16:33:27;4.57;;;2.60;;
5813;SDS011;2933;52.302;8.134;2024-01-16T16:38:29;5.70;;;2.27;;
5813;SDS011;2933;52.302;8.134;2024-01-16T16:43:31;3.97;;;2.67;;
5813;SDS011;2933;52.302;8.134;2024-01-16T16:48:34;25.57;;;3.17;;
5813;SDS011;2933;52.302;8.134;2024-01-16T16:53:35;12.27;;;3.70;;
5813;SDS011;2933;52.302;8.134;2024-01-16T16:58:40;2.50;;;2.30;;
5813;SDS011;2933;52.302;8.134;2024-01-16T17:03:45;3.50;;;3.20;;
5813;SDS011;2933;52.302;8.134;2024-01-16T17:08:49;4.10;;;3.30;;
5813;SDS011;2933;52.302;8.134;2024-01-16T17:13:50;3.50;;;3.03;;
5813;SDS011;2933;52.302;8.134;2024-01-16T17:18:53;5.20;;;3.80;;
5813;SDS011;2933;52.302;8.134;2024-01-16T17:23:55;2.67;;;2.40;;
5813;SDS011;2933;52.302;8.134;2024-01-16T17:28:57;3.27;;;2.93;;
5813;SDS011;2933;52.302;8.134;2024-01-16T17:34:01;10.73;;;3.83;;
5813;SDS011;2933;52.302;8.134;2024-01-16T17:39:03;4.73;;;3.43;;
5813;SDS011;2933;52.302;8.134;2024-01-16T17:44:09;4.00;;;3.70;;
5813;SDS011;2933;52.302;8.134;2024-01-16T17:49:11;11.53;;;3.50;;
5813;SDS011;2933;52.302;8.134;2024-01-16T17:54:13;7.00;;;3.37;;
5813;SDS011;2933;52.302;8.134;2024-01-16T17:59:15;7.20;;;3.40;;
5813;SDS011;2933;52.302;8.134;2024-01-16T18:04:20;5.53;;;3.50;;
5813;SDS011;2933;52.302;8.134;2024-01-16T18:09:21;3.70;;;3.43;;
5813;SDS011;2933;52.302;8.134;2024-01-16T18:14:28;6.03;;;3.77;;
5813;SDS011;2933;52.302;8.134;2024-01-16T18:19:32;4.20;;;3.30;;
5813;SDS011;2933;52.302;8.134;2024-01-16T18:24:36;10.23;;;3.83;;
5813;SDS011;2933;52.302;8.134;2024-01-16T18:29:38;4.30;;;2.80;;
5813;SDS011;2933;52.302;8.134;2024-01-16T18:34:41;5.93;;;3.63;;
5813;SDS011;2933;52.302;8.134;2024-01-16T18:39:44;10.43;;;3.87;;
5813;SDS011;2933;52.302;8.134;2024-01-16T18:44:45;5.03;;;4.00;;
5813;SDS011;2933;52.302;8.134;2024-01-16T18:49:48;4.37;;;3.50;;
5813;SDS011;2933;52.302;8.134;2024-01-16T18:54:50;8.47;;;4.50;;
5813;SDS011;2933;52.302;8.134;2024-01-16T18:59:52;4.80;;;4.00;;
5813;SDS011;2933;52.302;8.134;2024-01-16T19:04:56;10.93;;;5.20;;
5813;SDS011;2933;52.302;8.134;2024-01-16T19:09:57;9.40;;;4.73;;
5813;SDS011;2933;52.302;8.134;2024-01-16T19:15:01;5.60;;;4.30;;
5813;SDS011;2933;52.302;8.134;2024-01-16T19:20:04;10.10;;;5.00;;
5813;SDS011;2933;52.302;8.134;2024-01-16T19:25:09;8.47;;;4.90;;
5813;SDS011;2933;52.302;8.134;2024-01-16T19:30:11;11.47;;;4.20;;
5813;SDS011;2933;52.302;8.134;2024-01-16T19:35:15;10.63;;;4.40;;
5813;SDS011;2933;52.302;8.134;2024-01-16T19:40:17;10.50;;;4.90;;
5813;SDS011;2933;52.302;8.134;2024-01-16T19:45:18;7.30;;;4.60;;
5813;SDS011;2933;52.302;8.134;2024-01-16T19:50:21;6.67;;;4.07;;
5813;SDS011;2933;52.302;8.134;2024-01-16T19:55:24;9.53;;;4.70;;
5813;SDS011;2933;52.302;8.134;2024-01-16T20:00:26;9.83;;;4.77;;
5813;SDS011;2933;52.302;8.134;2024-01-16T20:05:29;17.90;;;5.23;;
5813;SDS011;2933;52.302;8.134;2024-01-16T20:10:31;6.17;;;4.40;;
5813;SDS011;2933;52.302;8.134;2024-01-16T20:15:33;8.33;;;4.40;;
5813;SDS011;2933;52.302;8.134;2024-01-16T20:20:36;6.43;;;4.10;;
5813;SDS011;2933;52.302;8.134;2024-01-16T20:25:38;6.50;;;5.23;;
5813;SDS011;2933;52.302;8.134;2024-01-16T20:30:40;10.20;;;4.63;;
5813;SDS011;2933;52.302;8.134;2024-01-16T20:35:43;8.53;;;5.00;;
5813;SDS011;2933;52.302;8.134;2024-01-16T20:40:44;7.77;;;6.03;;
5813;SDS011;2933;52.302;8.134;2024-01-16T20:45:47;9.53;;;4.50;;
5813;SDS011;2933;52.302;8.134;2024-01-16T20:50:50;8.37;;;4.13;;
5813;SDS011;2933;52.302;8.134;2024-01-16T20:55:51;6.60;;;4.40;;
5813;SDS011;2933;52.302;8.134;2024-01-16T21:00:53;9.30;;;4.53;;
5813;SDS011;2933;52.302;8.134;2024-01-16T21:05:56;4.30;;;3.93;;
5813;SDS011;2933;52.302;8.134;2024-01-16T21:10:57;8.70;;;4.97;;
5813;SDS011;2933;52.302;8.134;2024-01-16T21:15:59;10.30;;;5.07;;
5813;SDS011;2933;52.302;8.134;2024-01-16T21:21:03;6.40;;;4.37;;
5813;SDS011;2933;52.302;8.134;2024-01-16T21:26:06;4.40;;;4.00;;
5813;SDS011;2933;52.302;8.134;2024-01-16T21:31:08;8.80;;;4.60;;
5813;SDS011;2933;52.302;8.134;2024-01-16T21:36:11;13.70;;;4.63;;
5813;SDS011;2933;52.302;8.134;2024-01-16T21:41:14;10.63;;;4.47;;
5813;SDS011;2933;52.302;8.134;2024-01-16T21:46:15;11.10;;;5.90;;
5813;SDS011;2933;52.302;8.134;2024-01-16T21:51:19;7.03;;;4.07;;
5813;SDS011;2933;52.302;8.134;2024-01-16T21:56:21;13.73;;;4.80;;
5813;SDS011;2933;52.302;8.134;2024-01-16T22:01:22;11.07;;;4.90;;
5813;SDS011;2933;52.302;8.134;2024-01-16T22:06:26;12.27;;;5.03;;
5813;SDS011;2933;52.302;8.134;2024-01-16T22:11:28;10.57;;;4.57;;
5813;SDS011;2933;52.302;8.134;2024-01-16T22:16:29;7.70;;;4.50;;
5813;SDS011;2933;52.302;8.134;2024-01-16T22:21:32;8.60;;;5.10;;
5813;SDS011;2933;52.302;8.134;2024-01-16T22:26:34;10.50;;;4.63;;
5813;SDS011;2933;52.302;8.134;2024-01-16T22:31:39;9.30;;;4.80;;
5813;SDS011;2933;52.302;8.134;2024-01-16T22:36:42;10.43;;;4.73;;
5813;SDS011;2933;52.302;8.134;2024-01-16T22:41:44;7.10;;;5.10;;
5813;SDS011;2933;52.302;8.134;2024-01-16T22:46:46;6.13;;;4.63;;
5813;SDS011;2933;52.302;8.134;2024-01-16T22:51:49;8.57;;;4.70;;
5813;SDS011;2933;52.302;8.134;2024-01-16T22:56:51;6.57;;;4.93;;
5813;SDS011;2933;52.302;8.134;2024-01-16T23:01:53;12.53;;;5.30;;
5813;SDS011;2933;52.302;8.134;2024-01-16T23:06:56;16.60;;;5.03;;
5813;SDS011;2933;52.302;8.134;2024-01-16T23:11:57;6.77;;;4.67;;
5813;SDS011;2933;52.302;8.134;2024-01-16T23:16:59;6.67;;;5.10;;
5813;SDS011;2933;52.302;8.134;2024-01-16T23:22:02;10.00;;;5.83;;
5813;SDS011;2933;52.302;8.134;2024-01-16T23:27:04;8.07;;;5.27;;
5813;SDS011;2933;52.302;8.134;2024-01-16T23:32:06;13.70;;;4.90;;
5813;SDS011;2933;52.302;8.134;2024-01-16T23:37:09;12.70;;;6.27;;
5813;SDS011;2933;52.302;8.134;2024-01-16T23:42:12;12.73;;;5.17;;
5813;SDS011;2933;52.302;8.134;2024-01-16T23:47:15;11.30;;;4.40;;
5813;SDS011;2933;52.302;8.134;2024-01-16T23:52:18;11.47;;;4.87;;
5813;SDS011;2933;52.302;8.134;2024-01-16T23:57:20;13.20;;;3.73;;
